createdAt,value
2018-12-10T00:00:48.975Z,5.70
2018-12-10T00:03:27.270Z,5.60
2018-12-10T00:05:59.961Z,5.50
2018-12-10T00:08:32.812Z,5.50
2018-12-10T00:11:05.596Z,5.60
2018-12-10T00:13:36.976Z,5.60
2018-12-10T00:16:04.151Z,5.50
2018-12-10T00:18:31.900Z,5.50
2018-12-10T00:21:02.011Z,5.50
2018-12-10T00:23:32.752Z,5.60
2018-12-10T00:26:05.796Z,5.60
2018-12-10T00:28:34.132Z,5.60
2018-12-10T00:31:07.308Z,5.60
2018-12-10T00:33:37.389Z,5.50
2018-12-10T00:36:10.537Z,5.40
2018-12-10T00:38:40.624Z,5.30
2018-12-10T00:41:14.064Z,5.40
2018-12-10T00:43:44.068Z,5.40
2018-12-10T00:46:16.452Z,5.30
2018-12-10T00:48:49.300Z,5.20
2018-12-10T00:51:20.151Z,5.20
2018-12-10T00:53:53.025Z,5.20
2018-12-10T00:56:23.439Z,5.00
2018-12-10T00:58:54.088Z,5.00
2018-12-10T01:01:24.811Z,5.00
2018-12-10T01:03:53.464Z,5.00
2018-12-10T01:06:25.845Z,5.10
2018-12-10T01:08:58.633Z,5.20
2018-12-10T01:11:31.396Z,5.30
2018-12-10T01:14:02.295Z,5.30
2018-12-10T01:16:30.705Z,5.30
2018-12-10T01:19:03.668Z,5.30
2018-12-10T01:21:36.378Z,5.30
2018-12-10T01:24:04.788Z,5.30
2018-12-10T01:26:38.044Z,5.30
2018-12-10T01:29:10.953Z,5.20
2018-12-10T01:31:40.837Z,5.00
2018-12-10T01:34:14.196Z,4.90
2018-12-10T01:36:47.188Z,4.80
2018-12-10T01:39:20.036Z,4.70
2018-12-10T01:41:52.632Z,4.60
2018-12-10T01:44:24.971Z,4.50
2018-12-10T01:46:57.750Z,4.50
2018-12-10T01:49:27.922Z,4.40
2018-12-10T01:52:00.364Z,4.40
2018-12-10T01:54:33.373Z,4.40
2018-12-10T01:57:03.864Z,4.40
2018-12-10T01:59:34.579Z,4.30
2018-12-10T02:02:05.463Z,4.20
2018-12-10T02:04:39.892Z,4.10
2018-12-10T02:07:12.774Z,4.10
2018-12-10T02:09:43.102Z,4.10
2018-12-10T02:12:15.521Z,4.00
2018-12-10T02:14:48.513Z,4.00
2018-12-10T02:17:18.920Z,4.10
2018-12-10T02:19:51.873Z,4.10
2018-12-10T02:22:24.533Z,4.10
2018-12-10T02:24:59.132Z,4.00
2018-12-10T02:27:31.626Z,4.10
2018-12-10T02:30:04.504Z,4.10
2018-12-10T02:32:37.197Z,4.20
2018-12-10T02:35:07.401Z,4.10
2018-12-10T02:37:39.991Z,4.10
2018-12-10T02:40:12.673Z,4.30
2018-12-10T02:42:43.173Z,4.40
2018-12-10T02:45:16.474Z,4.40
2018-12-10T02:47:43.495Z,4.40
2018-12-10T02:50:16.370Z,4.30
2018-12-10T02:52:46.785Z,4.30
2018-12-10T02:55:20.068Z,4.30
2018-12-10T02:57:52.724Z,4.40
2018-12-10T03:00:25.395Z,4.40
2018-12-10T03:02:53.725Z,4.50
2018-12-10T03:05:27.029Z,4.50
2018-12-10T03:07:59.792Z,4.50
2018-12-10T03:10:30.029Z,4.40
2018-12-10T03:13:03.297Z,4.40
2018-12-10T03:15:33.794Z,4.40
2018-12-10T03:18:03.669Z,4.40
2018-12-10T03:20:32.353Z,4.50
2018-12-10T03:23:04.752Z,4.50
2018-12-10T03:25:37.637Z,4.40
2018-12-10T03:28:10.538Z,4.30
2018-12-10T03:30:41.329Z,4.30
2018-12-10T03:33:13.708Z,4.50
2018-12-10T03:35:46.412Z,4.60
2018-12-10T03:38:16.617Z,4.70
2018-12-10T03:40:50.024Z,4.50
2018-12-10T03:43:22.759Z,4.50
2018-12-10T03:45:55.745Z,4.30
2018-12-10T03:48:26.173Z,4.20
2018-12-10T03:50:58.701Z,4.10
2018-12-10T03:53:31.337Z,4.10
2018-12-10T03:56:04.116Z,4.30
2018-12-10T03:58:36.847Z,4.20
2018-12-10T04:01:09.513Z,4.10
2018-12-10T04:03:42.063Z,4.00
2018-12-10T04:06:14.478Z,3.90
2018-12-10T04:08:47.369Z,3.90
2018-12-10T04:11:20.047Z,4.00
2018-12-10T04:13:52.715Z,4.00
2018-12-10T04:16:25.599Z,4.00
2018-12-10T04:18:58.353Z,4.10
2018-12-10T04:21:31.058Z,4.10
2018-12-10T04:24:03.620Z,4.10
2018-12-10T04:26:36.092Z,4.30
2018-12-10T04:29:04.372Z,4.40
2018-12-10T04:31:37.613Z,4.40
2018-12-10T04:34:10.424Z,4.40
2018-12-10T04:36:40.670Z,4.40
2018-12-10T04:39:10.697Z,4.50
2018-12-10T04:41:38.668Z,4.50
2018-12-10T04:44:11.088Z,4.50
2018-12-10T04:46:41.656Z,4.40
2018-12-10T04:49:14.041Z,4.40
2018-12-10T04:51:47.259Z,4.40
2018-12-10T04:54:14.097Z,4.30
2018-12-10T04:56:47.096Z,4.30
2018-12-10T04:59:19.808Z,4.20
2018-12-10T05:01:52.529Z,4.20
2018-12-10T05:04:22.901Z,4.30
2018-12-10T05:06:53.847Z,4.30
2018-12-10T05:09:27.021Z,4.40
2018-12-10T05:11:59.740Z,4.40
2018-12-10T05:14:30.228Z,4.40
2018-12-10T05:17:00.172Z,4.40
2018-12-10T05:19:33.328Z,4.40
2018-12-10T05:22:03.773Z,4.40
2018-12-10T05:24:33.749Z,4.40
2018-12-10T05:27:04.549Z,4.40
2018-12-10T05:29:37.658Z,4.40
2018-12-10T05:32:07.708Z,4.40
2018-12-10T05:34:38.431Z,4.30
2018-12-10T05:37:07.054Z,4.30
2018-12-10T05:39:38.560Z,4.30
2018-12-10T05:42:15.620Z,4.30
2018-12-10T05:44:48.152Z,4.40
2018-12-10T05:47:21.483Z,4.40
2018-12-10T05:49:54.377Z,4.40
2018-12-10T05:52:24.807Z,4.40
2018-12-10T05:54:53.464Z,4.40
2018-12-10T05:57:26.659Z,4.40
2018-12-10T05:59:56.873Z,4.40
2018-12-10T06:02:27.716Z,4.30
2018-12-10T06:05:00.116Z,4.30
2018-12-10T06:07:32.818Z,4.30
2018-12-10T06:10:05.672Z,4.30
2018-12-10T06:12:38.539Z,4.30
2018-12-10T06:15:11.889Z,4.30
2018-12-10T06:17:44.599Z,4.30
2018-12-10T06:20:17.449Z,4.30
2018-12-10T06:22:50.185Z,4.20
2018-12-10T06:25:20.608Z,4.20
2018-12-10T06:27:53.276Z,4.10
2018-12-10T06:30:21.347Z,4.10
2018-12-10T06:32:52.087Z,4.10
2018-12-10T06:35:25.323Z,4.10
2018-12-10T06:37:57.921Z,4.10
2018-12-10T06:40:30.625Z,4.10
2018-12-10T06:43:04.258Z,4.20
2018-12-10T06:45:34.606Z,4.20
2018-12-10T06:48:05.452Z,4.30
2018-12-10T06:50:36.041Z,4.40
2018-12-10T06:53:06.231Z,4.40
2018-12-10T06:55:36.101Z,4.50
2018-12-10T06:58:06.799Z,4.50
2018-12-10T07:00:39.299Z,4.50
2018-12-10T07:03:10.588Z,4.50
2018-12-10T07:05:43.010Z,4.60
2018-12-10T07:08:15.772Z,4.60
2018-12-10T07:10:48.315Z,4.60
2018-12-10T07:13:18.411Z,4.60
2018-12-10T07:15:45.315Z,4.50
2018-12-10T07:18:18.061Z,4.50
2018-12-10T07:20:51.074Z,4.60
2018-12-10T07:23:23.920Z,4.60
2018-12-10T07:25:56.459Z,4.60
2018-12-10T07:28:26.415Z,4.70
2018-12-10T07:30:57.057Z,4.80
2018-12-10T07:33:29.384Z,4.70
2018-12-10T07:36:02.179Z,4.60
2018-12-10T07:38:32.584Z,4.50
2018-12-10T07:41:05.771Z,4.50
2018-12-10T07:43:38.347Z,4.50
2018-12-10T07:46:08.722Z,4.50
2018-12-10T07:48:41.951Z,4.40
2018-12-10T07:51:12.643Z,4.40
2018-12-10T07:56:07.764Z,4.40
2018-12-10T07:58:38.367Z,4.30
2018-12-10T08:01:12.223Z,4.30
2018-12-10T08:03:42.819Z,4.40
2018-12-10T08:06:12.659Z,4.40
2018-12-10T08:08:42.656Z,4.40
2018-12-10T08:11:15.016Z,4.50
2018-12-10T08:13:47.912Z,4.50
2018-12-10T08:16:20.848Z,4.60
2018-12-10T08:18:53.557Z,4.80
2018-12-10T08:21:24.841Z,4.90
2018-12-10T08:23:58.069Z,5.20
2018-12-10T08:26:30.700Z,5.30
2018-12-10T08:29:07.536Z,5.30
2018-12-10T08:31:35.934Z,5.40
2018-12-10T08:34:04.512Z,5.30
2018-12-10T08:36:36.883Z,5.20
2018-12-10T08:39:05.734Z,5.20
2018-12-10T08:41:38.718Z,5.20
2018-12-10T08:44:11.452Z,5.10
2018-12-10T08:46:44.243Z,5.20
2018-12-10T08:49:12.431Z,5.30
2018-12-10T08:51:45.483Z,5.50
2018-12-10T08:54:19.892Z,5.50
2018-12-10T08:56:50.302Z,5.50
2018-12-10T09:01:50.485Z,5.50
2018-12-10T09:04:17.287Z,5.60
2018-12-10T09:06:47.439Z,5.60
2018-12-10T09:09:20.536Z,5.60
2018-12-10T09:11:51.029Z,5.60
2018-12-10T09:14:24.028Z,5.60
2018-12-10T09:16:56.931Z,5.50
2018-12-10T09:19:27.052Z,5.60
2018-12-10T09:21:55.027Z,5.60
2018-12-10T09:24:24.920Z,5.70
2018-12-10T09:26:57.432Z,5.60
2018-12-10T09:29:29.921Z,5.70
2018-12-10T09:32:02.745Z,5.80
2018-12-10T09:34:35.332Z,5.90
2018-12-10T09:37:05.761Z,6.00
2018-12-10T09:39:38.252Z,6.00
2018-12-10T09:42:09.663Z,6.10
2018-12-10T09:44:42.508Z,6.10
2018-12-10T09:47:12.889Z,6.10
2018-12-10T09:49:45.355Z,6.40
2018-12-10T09:52:15.623Z,6.60
2018-12-10T09:54:48.260Z,6.80
2018-12-10T09:57:18.764Z,6.90
2018-12-10T09:59:48.728Z,7.00
2018-12-10T10:02:22.153Z,6.90
2018-12-10T10:04:50.985Z,6.70
2018-12-10T10:07:19.803Z,6.60
2018-12-10T10:09:50.384Z,6.60
2018-12-10T10:12:23.785Z,6.60
2018-12-10T10:14:56.694Z,6.70
2018-12-10T10:17:27.088Z,6.80
2018-12-10T10:19:59.504Z,6.90
2018-12-10T10:22:32.488Z,7.10
2018-12-10T10:25:05.531Z,6.80
2018-12-10T10:27:33.937Z,6.60
2018-12-10T10:30:08.185Z,6.50
2018-12-10T10:32:38.435Z,6.30
2018-12-10T10:35:11.016Z,6.40
2018-12-10T10:37:41.184Z,6.70
2018-12-10T10:40:11.268Z,6.90
2018-12-10T10:42:43.756Z,6.90
2018-12-10T10:45:12.268Z,6.90
2018-12-10T10:47:45.456Z,7.00
2018-12-10T10:50:18.650Z,7.30
2018-12-10T10:52:49.476Z,7.80
2018-12-10T10:55:22.284Z,7.50
2018-12-10T10:57:52.912Z,7.30
2018-12-10T11:00:29.328Z,7.20
2018-12-10T11:03:03.948Z,7.00
2018-12-10T11:05:34.368Z,6.70
2018-12-10T11:08:06.774Z,6.50
2018-12-10T11:10:37.264Z,6.50
2018-12-10T11:13:09.772Z,6.50
2018-12-10T11:15:42.509Z,6.40
2018-12-10T11:18:16.292Z,6.40
2018-12-10T11:20:48.946Z,6.40
2018-12-10T11:23:19.256Z,6.40
2018-12-10T11:25:50.091Z,6.20
2018-12-10T11:28:23.380Z,6.30
2018-12-10T11:30:56.168Z,6.40
2018-12-10T11:33:26.283Z,6.30
2018-12-10T11:35:58.641Z,6.30
2018-12-10T11:38:31.691Z,6.20
2018-12-10T11:41:04.755Z,6.20
2018-12-10T11:43:37.339Z,6.20
2018-12-10T11:46:07.435Z,6.30
2018-12-10T11:48:38.400Z,6.20
2018-12-10T11:51:10.827Z,6.10
2018-12-10T11:53:41.193Z,6.00
2018-12-10T11:56:12.028Z,6.10
2018-12-10T11:58:45.032Z,6.00
2018-12-10T12:01:18.005Z,6.00
2018-12-10T12:03:48.313Z,6.00
2018-12-10T12:06:20.789Z,6.00
2018-12-10T12:08:51.285Z,6.10
2018-12-10T12:16:18.136Z,6.40
2018-12-10T12:18:48.748Z,6.40
2018-12-10T12:21:18.752Z,6.30
2018-12-10T12:23:49.408Z,6.30
2018-12-10T12:26:21.780Z,6.20
2018-12-10T12:28:54.436Z,6.30
2018-12-10T12:31:25.095Z,6.40
2018-12-10T12:33:55.672Z,6.30
2018-12-10T12:36:27.357Z,6.20
2018-12-10T12:38:55.323Z,6.20
2018-12-10T12:41:27.921Z,6.20
2018-12-10T12:44:00.741Z,6.10
2018-12-10T12:46:35.391Z,6.10
2018-12-10T12:49:05.407Z,6.10
2018-12-10T12:51:34.091Z,6.10
2018-12-10T12:54:04.096Z,6.10
2018-12-10T12:56:34.680Z,6.10
2018-12-10T12:59:07.343Z,6.10
2018-12-10T13:01:37.494Z,6.10
2018-12-10T13:04:07.505Z,6.00
2018-12-10T13:06:38.316Z,5.90
2018-12-10T13:09:11.576Z,5.80
2018-12-10T13:11:44.246Z,5.70
2018-12-10T13:14:14.403Z,5.60
2018-12-10T13:16:49.451Z,5.50
2018-12-10T13:19:16.243Z,5.50
2018-12-10T13:21:46.220Z,5.30
2018-12-10T13:24:19.576Z,5.30
2018-12-10T13:26:50.125Z,5.40
2018-12-10T13:29:31.004Z,5.30
2018-12-10T13:31:55.886Z,5.40
2018-12-10T13:34:29.143Z,5.60
2018-12-10T13:37:01.808Z,5.80
2018-12-10T13:39:31.982Z,5.80
2018-12-10T13:42:05.299Z,6.00
2018-12-10T13:44:39.163Z,6.10
2018-12-10T13:47:09.334Z,6.10
2018-12-10T13:49:38.810Z,6.10
2018-12-10T13:52:09.267Z,6.00
2018-12-10T13:54:39.811Z,5.80
2018-12-10T13:57:10.408Z,5.80
2018-12-10T13:59:40.455Z,5.90
2018-12-10T14:02:11.202Z,5.80
2018-12-10T14:04:47.540Z,5.80
2018-12-10T14:07:18.162Z,5.80
2018-12-10T14:09:50.776Z,5.80
2018-12-10T14:12:23.731Z,5.80
2018-12-10T14:14:54.321Z,5.70
2018-12-10T14:17:24.281Z,5.60
2018-12-10T14:19:54.295Z,5.70
2018-12-10T14:22:24.815Z,5.80
2018-12-10T14:24:58.060Z,5.80
2018-12-10T14:27:32.086Z,5.80
2018-12-10T14:30:04.985Z,5.70
2018-12-10T14:32:35.172Z,5.70
2018-12-10T14:35:08.415Z,5.80
2018-12-10T14:37:38.820Z,5.90
2018-12-10T14:40:11.147Z,5.90
2018-12-10T14:42:53.067Z,5.90
2018-12-10T14:45:23.760Z,5.90
2018-12-10T14:47:53.233Z,6.00
2018-12-10T14:50:25.932Z,6.00
2018-12-10T14:52:56.103Z,6.00
2018-12-10T14:55:25.989Z,6.00
2018-12-10T14:57:56.759Z,6.00
2018-12-10T15:00:25.644Z,6.00
2018-12-10T15:02:57.696Z,6.00
2018-12-10T15:05:28.903Z,5.90
2018-12-10T15:07:59.043Z,5.90
2018-12-10T15:10:31.631Z,5.90
2018-12-10T15:13:01.792Z,5.90
2018-12-10T15:15:31.648Z,5.70
2018-12-10T15:18:04.747Z,5.60
2018-12-10T15:20:34.759Z,5.50
2018-12-10T15:23:03.000Z,5.50
2018-12-10T15:25:35.407Z,5.40
2018-12-10T15:28:05.627Z,5.20
2018-12-10T15:30:38.894Z,5.10
2018-12-10T15:33:11.868Z,5.00
2018-12-10T15:35:44.508Z,4.90
2018-12-10T15:38:14.885Z,4.80
2018-12-10T15:40:44.767Z,4.70
2018-12-10T15:43:15.526Z,4.70
2018-12-10T15:45:45.456Z,4.60
2018-12-10T15:48:15.618Z,4.60
2018-12-10T15:50:49.034Z,4.50
2018-12-10T15:53:19.064Z,4.50
2018-12-10T15:55:52.424Z,4.50
2018-12-10T15:58:22.627Z,4.50
2018-12-10T16:00:51.424Z,4.50
2018-12-10T16:03:23.888Z,4.50
2018-12-10T16:05:54.284Z,4.40
2018-12-10T16:08:26.957Z,4.40
2018-12-10T16:10:59.353Z,4.40
2018-12-10T16:13:29.527Z,4.40
2018-12-10T16:15:58.290Z,4.30
2018-12-10T16:18:30.661Z,4.30
2018-12-10T16:21:03.423Z,4.20
2018-12-10T16:23:36.300Z,4.10
2018-12-10T16:26:06.875Z,4.10
2018-12-10T16:28:40.248Z,4.00
2018-12-10T16:31:10.678Z,3.90
2018-12-10T16:33:43.188Z,3.90
2018-12-10T16:36:16.348Z,3.80
2018-12-10T16:38:49.123Z,3.80
2018-12-10T16:41:21.903Z,3.90
2018-12-10T16:43:52.376Z,3.80
2018-12-10T16:46:23.216Z,3.80
2018-12-10T16:48:53.725Z,3.80
2018-12-10T16:51:26.100Z,3.90
2018-12-10T16:53:56.409Z,3.80
2018-12-10T16:56:26.486Z,3.80
2018-12-10T16:58:56.580Z,3.90
2018-12-10T17:01:26.559Z,3.80
2018-12-10T17:03:58.916Z,3.80
2018-12-10T17:06:31.587Z,3.80
2018-12-10T17:09:04.437Z,3.80
2018-12-10T17:11:34.952Z,3.80
2018-12-10T17:14:08.365Z,3.90
2018-12-10T17:16:38.443Z,4.00
2018-12-10T17:19:09.147Z,4.00
2018-12-10T17:21:40.409Z,4.00
